Time;durP1;ratioP1;P1;durP2;ratioP2;P2;SDS_P1;SDS_P2;PMS_P1;PMS_P2;Temp;Humidity;BMP_temperature;BMP_pressure;BME280_temperature;BME280_humidity;BME280_pressure;Samples;Min_cycle;Max_cycle;Signal;HPM_P1;HPM_P2
2022/06/19 00:00:12;;;;;;;10.63;2.03;;;14.60;99.90;;;13.50;86.12;100927.97;4967051;28;20038;-74
2022/06/19 00:02:40;;;;;;;14.63;1.95;;;14.50;99.90;;;13.40;86.22;100930.28;4974873;28;20453;-74
2022/06/19 00:05:08;;;;;;;8.23;1.85;;;14.40;99.90;;;13.34;86.14;100918.22;4977244;28;20022;-75
2022/06/19 00:07:34;;;;;;;12.65;2.53;;;14.30;99.90;;;13.31;86.87;100904.34;4964908;28;20494;-74
2022/06/19 00:10:00;;;;;;;6.50;1.65;;;14.30;99.90;;;13.29;87.47;100890.34;4982186;28;20538;-75
2022/06/19 00:12:27;;;;;;;13.65;1.90;;;14.30;99.90;;;13.27;88.92;100885.09;4968864;28;20113;-74
2022/06/19 00:14:53;;;;;;;12.60;2.22;;;14.30;99.90;;;13.33;90.11;100878.66;4970076;28;20046;-74
2022/06/19 00:17:19;;;;;;;19.55;2.92;;;14.30;99.90;;;13.40;91.00;100881.81;4967305;28;20029;-74
2022/06/19 00:19:45;;;;;;;;;;;14.30;99.90;;;13.41;91.94;100871.16;4972792;28;20062;-75
2022/06/19 00:22:11;;;;;;;18.42;3.33;;;14.40;99.90;;;13.47;91.75;100862.00;4991208;28;19931;-74
2022/06/19 00:24:37;;;;;;;13.77;2.45;;;14.40;99.90;;;13.51;92.19;100864.38;4980463;28;20736;-74
2022/06/19 00:27:03;;;;;;;16.23;2.30;;;14.50;99.90;;;13.54;93.05;100866.00;4964970;28;20030;-74
2022/06/19 00:29:29;;;;;;;13.02;2.47;;;14.50;99.90;;;13.59;92.93;100876.34;4972618;28;20038;-74
2022/06/19 00:31:56;;;;;;;13.55;2.75;;;14.50;99.90;;;13.60;91.59;100886.81;4958634;28;20038;-74
2022/06/19 00:34:22;;;;;;;9.95;2.03;;;14.40;99.90;;;13.42;91.05;100890.53;4973325;28;20045;-75
2022/06/19 00:36:52;;;;;;;13.63;2.35;;;14.40;99.90;;;13.40;90.34;100884.47;4966713;28;20026;-74
2022/06/19 00:39:19;;;;;;;15.50;2.05;;;14.40;99.90;;;13.36;90.15;100886.41;4967652;28;20018;-75
2022/06/19 00:41:47;;;;;;;13.18;2.05;;;14.30;99.90;;;13.34;89.82;100875.06;4967285;28;20030;-74
2022/06/19 00:44:15;;;;;;;12.27;2.67;;;14.30;99.90;;;13.34;91.33;100873.25;4974049;28;21376;-74
2022/06/19 00:46:46;;;;;;;11.73;2.47;;;14.30;99.90;;;13.29;92.94;100867.41;4966743;28;20117;-75
2022/06/19 00:49:38;;;;;;;15.82;2.05;;;14.30;99.90;;;13.34;92.39;100869.78;4992432;28;20577;-75
2022/06/19 00:52:06;;;;;;;12.52;2.15;;;14.30;99.90;;;13.36;91.42;100859.13;4960112;28;20161;-74
2022/06/19 00:54:58;;;;;;;13.30;2.38;;;14.30;99.90;;;13.37;91.01;100852.88;4991763;28;20064;-74
2022/06/19 00:57:27;;;;;;;11.38;2.30;;;14.30;99.90;;;13.38;90.79;100855.44;4955294;28;20076;-74
2022/06/19 01:00:13;;;;;;;8.23;2.10;;;14.30;99.90;;;13.38;91.03;100859.88;4969203;28;20034;-75
2022/06/19 01:02:43;;;;;;;8.43;1.95;;;14.30;99.90;;;13.27;91.68;100860.44;4933665;28;20033;-75
2022/06/19 01:05:14;;;;;;;15.88;2.15;;;14.30;99.90;;;13.27;91.71;100863.94;4947448;28;20022;-74
2022/06/19 01:07:43;;;;;;;14.90;2.40;;;14.30;99.90;;;13.29;90.89;100863.91;4946490;28;20038;-75
2022/06/19 01:10:12;;;;;;;10.38;2.08;;;14.20;99.90;;;13.30;91.57;100863.81;4967021;28;20193;-75
2022/06/19 01:12:41;;;;;;;7.32;1.70;;;14.30;99.90;;;13.30;91.86;100862.94;4958721;28;20041;-75
2022/06/19 01:15:11;;;;;;;9.13;2.03;;;14.20;99.90;;;13.33;92.53;100868.94;4949228;28;20053;-74
2022/06/19 01:17:38;;;;;;;15.95;2.38;;;14.30;99.90;;;13.38;92.75;100866.03;4965965;28;20030;-75
2022/06/19 01:20:08;;;;;;;16.42;2.30;;;14.30;99.90;;;13.41;93.69;100876.44;4964999;28;20423;-75
2022/06/19 01:23:09;;;;;;;16.33;2.72;;;14.30;99.90;;;13.42;95.10;100872.00;4964509;28;20018;-75
2022/06/19 01:25:39;;;;;;;16.45;2.65;;;14.40;99.90;;;13.43;95.47;100868.41;4974958;28;20486;-75
2022/06/19 01:31:01;;;;;;;14.63;2.75;;;14.40;99.90;;;13.43;98.17;100863.13;4969045;28;20091;-75
2022/06/19 01:33:39;;;;;;;12.15;2.65;;;14.40;99.90;;;13.40;98.43;100852.72;4975022;28;20148;-75
2022/06/19 01:36:07;;;;;;;10.23;2.20;;;14.40;99.90;;;13.42;98.74;100854.34;4939879;28;20101;-75
2022/06/19 01:38:34;;;;;;;14.25;2.80;;;14.40;99.90;;;13.41;98.60;100860.56;4957606;28;20695;-75
2022/06/19 01:41:12;;;;;;;14.10;2.95;;;14.40;99.90;;;13.42;99.85;100856.13;4950611;28;20034;-75
2022/06/19 01:43:38;;;;;;;19.13;3.08;;;14.40;99.90;;;13.47;99.56;100862.84;4970914;28;20038;-75
2022/06/19 01:46:05;;;;;;;17.23;3.15;;;14.50;99.90;;;13.49;99.24;100858.34;4959362;28;20045;-75
2022/06/19 01:48:34;;;;;;;19.48;3.05;;;14.50;99.90;;;13.56;98.58;100858.00;4973598;28;20029;-75
2022/06/19 01:51:04;;;;;;;15.65;2.90;;;14.50;99.90;;;13.59;98.92;100848.09;4965469;28;20026;-74
2022/06/19 01:54:00;;;;;;;17.20;3.08;;;14.50;99.90;;;13.56;98.67;100835.03;4956961;28;20070;-75
2022/06/19 01:56:28;;;;;;;26.80;3.30;;;14.50;99.90;;;13.57;98.54;100828.81;4967904;28;20109;-75
2022/06/19 01:59:01;;;;;;;11.35;2.60;;;14.50;99.90;;;13.62;97.21;100825.91;4963190;28;20026;-75
2022/06/19 02:01:27;;;;;;;16.25;2.63;;;14.60;99.90;;;13.64;96.29;100835.44;4964401;28;20505;-75
2022/06/19 02:03:57;;;;;;;16.27;2.97;;;14.50;99.90;;;13.52;97.58;100822.94;4974377;28;20038;-75
2022/06/19 02:06:35;;;;;;;15.27;3.00;;;14.50;99.90;;;13.43;99.78;100823.44;4947454;28;20026;-76
2022/06/19 02:09:02;;;;;;;17.67;3.20;;;14.50;99.90;;;13.46;99.25;100826.78;4975370;28;20038;-75
2022/06/19 02:11:31;;;;;;;17.33;3.35;;;14.50;99.90;;;13.53;98.41;100819.34;4971920;28;20096;-75
2022/06/19 02:13:58;;;;;;;17.67;2.78;;;14.50;99.90;;;13.58;97.41;100817.28;4970501;28;20046;-75
2022/06/19 02:16:25;;;;;;;17.77;2.90;;;14.50;99.90;;;13.61;96.47;100816.25;4959890;28;20032;-75
2022/06/19 02:18:53;;;;;;;18.33;3.10;;;14.50;99.90;;;13.66;96.16;100828.25;4965606;28;20037;-75
2022/06/19 02:21:38;;;;;;;16.20;2.80;;;14.50;99.90;;;13.66;96.56;100822.97;4948460;28;20691;-75
2022/06/19 02:24:06;;;;;;;16.23;3.08;;;14.50;99.90;;;13.58;97.42;100817.28;4969009;28;20058;-75
2022/06/19 02:26:34;;;;;;;18.42;2.58;;;14.50;99.90;;;13.59;97.76;100819.00;4956247;28;20485;-75
2022/06/19 02:28:59;;;;;;;18.05;2.70;;;14.50;99.90;;;13.59;97.22;100816.34;4955080;28;20471;-75
2022/06/19 02:31:26;;;;;;;13.55;2.60;;;14.50;99.90;;;13.57;97.27;100806.81;4973357;28;20082;-75
2022/06/19 02:33:58;;;;;;;24.25;3.13;;;14.40;99.90;;;13.45;99.31;100789.81;4972927;28;20410;-76
2022/06/19 02:36:39;;;;;;;16.52;3.17;;;14.40;99.90;;;13.37;100.00;100786.75;4960006;28;20101;-75
2022/06/19 02:39:31;;;;;;;17.98;3.35;;;14.30;99.90;;;13.29;100.00;100787.22;4972544;28;20037;-75
2022/06/19 02:42:28;;;;;;;16.30;2.92;;;14.30;99.90;;;13.28;100.00;100780.16;4988838;28;20042;-75
2022/06/19 02:45:01;;;;;;;20.85;3.17;;;14.20;99.90;;;13.11;100.00;100773.22;4969969;28;20046;-76
2022/06/19 02:47:31;;;;;;;20.05;3.60;;;14.20;99.90;;;13.04;100.00;100769.19;4965493;28;20036;-75
2022/06/19 02:49:57;;;;;;;19.60;3.08;;;14.10;99.90;;;12.96;100.00;100767.00;4972763;28;20025;-75
2022/06/19 02:52:23;;;;;;;17.55;3.28;;;14.10;99.90;;;13.07;100.00;100758.47;4963614;28;20084;-75
2022/06/19 02:54:49;;;;;;;;;;;14.10;99.90;;;13.11;100.00;100757.34;4981991;28;20050;-75
2022/06/19 02:57:16;;;;;;;26.45;3.78;;;14.20;99.90;;;13.18;100.00;100776.38;4955685;28;19984;-75
2022/06/19 02:59:44;;;;;;;20.50;3.00;;;14.20;99.90;;;13.31;100.00;100780.91;4938701;28;20042;-76
2022/06/19 03:02:14;;;;;;;26.15;3.63;;;14.30;99.90;;;13.44;100.00;100769.63;4953977;28;20038;-75
2022/06/19 03:04:50;;;;;;;15.98;2.88;;;14.40;99.90;;;13.54;100.00;100765.47;4949762;28;20030;-75
2022/06/19 03:07:15;;;;;;;23.77;3.42;;;14.40;99.90;;;13.65;100.00;100763.06;4942296;28;20649;-77
2022/06/19 03:09:41;;;;;;;;;;;14.50;99.90;;;13.70;100.00;100761.00;4966555;28;20026;-75
2022/06/19 03:12:09;;;;;;;23.05;3.50;;;14.60;99.90;;;13.69;100.00;100756.66;4980475;28;19929;-75
2022/06/19 03:14:34;;;;;;;21.10;3.72;;;14.60;99.90;;;13.73;100.00;100750.22;4973568;28;20049;-75
2022/06/19 03:17:00;;;;;;;15.35;2.90;;;14.70;99.90;;;13.90;99.54;100743.91;4956564;28;20057;-75
2022/06/19 03:19:28;;;;;;;19.58;2.97;;;14.80;99.90;;;14.04;98.51;100735.16;4945881;28;20594;-76
2022/06/19 03:21:54;;;;;;;19.80;2.75;;;14.90;99.90;;;14.17;97.43;100745.84;4957478;28;20491;-76
2022/06/19 03:24:20;;;;;;;17.05;2.92;;;15.00;99.90;;;14.26;96.76;100739.16;4989276;28;20033;-76
2022/06/19 03:26:46;;;;;;;21.55;3.25;;;15.10;99.90;;;14.39;96.03;100721.53;4954578;28;20101;-75
2022/06/19 03:29:12;;;;;;;21.50;3.08;;;15.20;99.90;;;14.53;94.44;100733.91;4945902;28;20048;-76
2022/06/19 03:31:38;;;;;;;18.38;3.20;;;15.40;99.90;;;14.70;93.73;100728.41;4982425;28;20050;-75
2022/06/19 03:34:04;;;;;;;21.33;3.47;;;15.40;99.90;;;14.85;92.59;100728.41;4963463;28;20038;-75
2022/06/19 03:36:30;;;;;;;20.23;3.40;;;15.60;99.90;;;15.02;91.57;100725.50;4971042;28;20398;-76
2022/06/19 03:38:56;;;;;;;23.75;3.60;;;15.80;99.90;;;15.15;91.34;100718.44;4957216;28;20117;-75
2022/06/19 03:41:21;;;;;;;;;;;15.90;99.90;;;15.22;91.39;100710.06;4966329;28;20018;-75
2022/06/19 03:43:47;;;;;;;22.65;3.10;;;16.20;99.90;;;15.37;90.51;100703.75;4970399;28;19979;-75
2022/06/19 03:46:16;;;;;;;;;;;16.20;99.90;;;15.55;89.67;100693.69;4972752;28;20701;-76
2022/06/19 03:48:51;;;;;;;20.83;2.92;;;16.60;99.90;;;15.85;88.13;100697.88;4962828;28;19932;-75
2022/06/19 03:51:18;;;;;;;19.88;3.00;;;16.90;99.90;;;16.13;86.54;100697.69;4972409;28;20042;-76
2022/06/19 03:53:45;;;;;;;22.27;3.88;;;17.10;99.90;;;16.37;84.99;100691.56;4962019;28;20038;-75
2022/06/19 03:56:27;;;;;;;18.48;3.25;;;17.20;99.90;;;16.25;83.94;100676.50;4949586;28;20181;-76
2022/06/19 03:58:54;;;;;;;27.40;3.70;;;17.00;99.90;;;16.05;85.49;100676.13;4964274;28;20406;-75
2022/06/19 04:01:27;;;;;;;23.90;3.83;;;17.00;99.90;;;16.01;86.44;100676.44;4950953;28;20525;-75
2022/06/19 04:03:55;;;;;;;20.63;3.35;;;16.80;99.90;;;15.78;87.77;100679.72;4973728;28;20492;-75
2022/06/19 04:06:25;;;;;;;18.88;3.25;;;16.70;99.90;;;15.69;88.36;100672.38;4966373;28;20044;-75
2022/06/19 04:08:51;;;;;;;21.98;3.67;;;16.50;99.90;;;15.51;89.89;100658.56;4966263;28;20514;-75
2022/06/19 04:11:20;;;;;;;21.13;3.10;;;16.40;99.90;;;15.48;90.73;100650.78;4976438;28;20045;-75
2022/06/19 04:13:46;;;;;;;17.95;2.97;;;16.40;99.90;;;15.48;90.80;100642.84;4973235;28;20041;-75
2022/06/19 04:16:20;;;;;;;22.63;3.55;;;16.40;99.90;;;15.69;90.51;100637.88;4960263;28;20061;-75
2022/06/19 04:18:48;;;;;;;17.33;3.20;;;16.50;99.90;;;15.87;90.25;100629.59;4959879;28;20034;-75
2022/06/19 04:21:20;;;;;;;22.10;3.30;;;16.70;99.90;;;16.27;88.62;100640.91;4968607;28;23101;-75
2022/06/19 04:23:46;;;;;;;23.35;3.53;;;16.90;99.90;;;16.66;85.86;100646.09;4948609;28;20028;-75
2022/06/19 04:26:15;;;;;;;27.85;3.47;;;17.30;99.90;;;17.17;83.66;100656.50;4967986;28;20029;-75
2022/06/19 04:28:41;;;;;;;21.73;3.60;;;17.60;99.90;;;17.45;82.18;100665.03;4970905;28;20033;-76
2022/06/19 04:31:07;;;;;;;19.55;3.70;;;17.80;99.90;;;17.40;82.10;100668.06;4976754;28;20049;-75
2022/06/19 04:33:38;;;;;;;25.17;3.80;;;17.80;99.90;;;17.16;83.45;100678.75;4963173;28;20128;-75
2022/06/19 04:36:09;;;;;;;18.83;3.15;;;17.80;99.90;;;17.10;83.43;100687.19;4957770;28;20607;-75
2022/06/19 04:38:38;;;;;;;21.25;3.40;;;17.80;99.90;;;17.21;83.73;100689.88;4959595;28;20038;-76
2022/06/19 04:41:05;;;;;;;18.42;3.58;;;17.90;99.90;;;17.52;82.78;100690.25;4945458;28;20018;-76
2022/06/19 04:43:31;;;;;;;25.00;3.95;;;18.10;99.90;;;17.94;81.78;100688.75;4964540;28;20045;-75
2022/06/19 04:46:05;;;;;;;16.52;3.15;;;18.40;99.90;;;18.11;80.65;100690.09;4968384;28;20028;-76
2022/06/19 04:48:32;;;;;;;16.65;3.15;;;18.50;99.90;;;17.97;81.17;100685.00;4973824;28;20049;-76
2022/06/19 04:50:58;;;;;;;21.33;3.28;;;18.40;99.90;;;17.74;81.08;100678.78;4967222;28;20030;-75
2022/06/19 04:53:24;;;;;;;23.48;4.13;;;18.40;99.90;;;17.69;82.04;100665.84;4957334;28;20045;-75
2022/06/19 04:55:51;;;;;;;23.08;3.28;;;18.40;99.90;;;17.75;82.28;100662.69;4956979;28;20093;-75
2022/06/19 04:58:18;;;;;;;21.17;3.85;;;18.40;99.90;;;18.02;82.68;100666.84;4947816;28;20779;-76
2022/06/19 05:00:43;;;;;;;21.45;3.70;;;18.50;99.90;;;17.96;81.35;100685.97;4960060;28;20044;-76
2022/06/19 05:03:09;;;;;;;23.15;4.22;;;18.50;99.90;;;17.75;82.52;100697.31;4956005;28;20037;-76
2022/06/19 05:05:37;;;;;;;;;;;18.50;99.90;;;17.43;84.99;100703.28;4975485;28;20077;-75
2022/06/19 05:08:03;;;;;;;21.25;3.35;;;18.20;99.90;;;17.14;87.12;100688.66;4959690;28;19905;-75
2022/06/19 05:10:29;;;;;;;26.77;3.78;;;18.00;99.90;;;17.04;88.43;100680.53;4957246;28;20512;-75
2022/06/19 05:12:56;;;;;;;;;;;18.10;99.90;;;16.85;90.45;100673.06;4992887;28;20038;-76
2022/06/19 05:15:23;;;;;;;19.65;3.03;;;17.90;99.90;;;17.14;89.57;100681.50;4974434;28;19906;-76
2022/06/19 05:17:49;;;;;;;19.88;3.50;;;18.00;99.90;;;17.35;89.33;100679.06;4981679;28;20058;-76
2022/06/19 05:20:15;;;;;;;22.88;4.03;;;18.10;99.90;;;17.51;89.89;100675.22;4991602;28;20023;-76
2022/06/19 05:22:40;;;;;;;21.80;3.55;;;18.10;99.90;;;17.33;90.37;100670.34;4964964;28;20162;-76
2022/06/19 05:25:08;;;;;;;14.90;3.35;;;18.00;99.90;;;17.09;91.37;100666.88;4948246;28;20038;-76
2022/06/19 05:27:40;;;;;;;21.60;3.83;;;18.00;99.90;;;17.25;91.08;100659.41;4962911;28;20026;-75
2022/06/19 05:30:09;;;;;;;14.90;2.75;;;18.10;99.90;;;17.43;91.04;100665.19;4968571;28;20034;-76
2022/06/19 05:32:35;;;;;;;22.08;3.78;;;18.10;99.90;;;17.44;91.02;100666.88;4966135;28;20030;-75
2022/06/19 05:35:01;;;;;;;18.98;3.20;;;18.20;99.90;;;17.58;91.46;100661.34;4979234;28;20058;-76
2022/06/19 05:37:27;;;;;;;;;;;18.30;99.90;;;17.46;92.00;100670.25;4965938;28;20041;-75
2022/06/19 05:39:52;;;;;;;19.92;3.42;;;18.40;99.90;;;17.67;91.55;100674.88;4975382;28;20298;-76
2022/06/19 05:42:19;;;;;;;17.63;3.55;;;18.40;99.90;;;17.74;91.69;100678.78;4957535;28;20510;-76
2022/06/19 05:44:44;;;;;;;14.50;2.95;;;18.50;99.90;;;17.82;91.27;100668.44;4961521;28;20106;-75
2022/06/19 05:47:13;;;;;;;21.92;3.50;;;18.50;99.90;;;17.76;92.41;100664.38;4964900;28;20565;-76
2022/06/19 05:49:39;;;;;;;22.38;3.65;;;18.50;99.90;;;17.74;92.33;100645.00;4968306;28;20033;-76
2022/06/19 05:52:16;;;;;;;19.65;3.13;;;18.40;99.90;;;17.63;92.45;100639.69;4970916;28;20037;-76
2022/06/19 05:54:43;;;;;;;19.30;3.40;;;18.70;99.90;;;18.55;88.93;100632.41;4975359;28;20112;-76
2022/06/19 05:57:10;;;;;;;12.82;2.85;;;19.30;99.90;;;19.64;81.75;100638.44;4962966;28;20076;-76
2022/06/19 05:59:36;;;;;;;13.43;3.10;;;19.50;99.90;;;19.11;81.74;100641.19;4964221;28;20038;-75
2022/06/19 06:02:02;;;;;;;16.77;2.92;;;19.70;99.90;;;19.19;82.81;100630.72;4973895;28;20038;-76
2022/06/19 06:04:27;;;;;;;22.20;3.72;;;19.80;99.90;;;19.43;82.13;100622.44;4970438;28;20026;-76
2022/06/19 06:06:53;;;;;;;17.83;3.42;;;20.20;99.90;;;19.99;78.23;100616.69;4966327;28;20713;-76
2022/06/19 06:09:19;;;;;;;;;;;20.20;99.90;;;19.80;77.92;100601.41;4973189;28;20130;-76
2022/06/19 06:11:45;;;;;;;15.95;3.03;;;20.20;99.90;;;19.35;79.90;100591.06;4964838;28;19940;-76
2022/06/19 06:14:12;;;;;;;14.48;3.78;;;20.00;99.90;;;19.14;81.82;100571.53;4972193;28;20058;-77
2022/06/19 06:16:37;;;;;;;13.70;3.15;;;19.70;99.90;;;18.81;83.15;100560.06;4974996;28;20045;-76
2022/06/19 06:19:03;;;;;;;14.40;3.40;;;19.90;99.90;;;19.34;81.14;100552.00;4963410;28;20137;-76
2022/06/19 06:21:29;;;;;;;;;;;19.90;99.90;;;19.21;79.88;100554.03;4955933;28;20022;-76
2022/06/19 06:23:55;;;;;;;12.65;2.72;;;20.00;99.90;;;19.58;78.66;100557.00;4983742;28;19905;-76
2022/06/19 06:26:26;;;;;;;;;;;20.00;99.90;;;19.88;74.64;100556.19;4978969;28;20030;-76
2022/06/19 06:28:55;;;;;;;14.82;2.85;;;20.40;99.90;;;20.06;74.74;100550.19;4955886;28;19909;-77
2022/06/19 06:31:21;;;;;;;16.13;2.70;;;20.70;99.90;;;20.79;71.90;100539.16;4970773;28;20070;-76
2022/06/19 06:33:47;;;;;;;11.90;2.45;;;21.00;99.90;;;20.76;71.25;100523.41;4963643;28;20038;-76
2022/06/19 06:36:13;;;;;;;14.77;2.92;;;21.10;99.90;;;20.73;71.15;100510.28;4972263;28;20033;-76
2022/06/19 06:38:40;;;;;;;18.10;3.30;;;21.30;99.90;;;21.73;69.40;100520.47;4972146;28;20037;-76
2022/06/19 06:41:09;;;;;;;13.68;2.53;;;22.20;99.90;;;23.72;62.73;100525.47;4953464;28;20142;-77
2022/06/19 06:43:38;;;;;;;14.38;3.03;;;23.00;99.90;;;23.70;61.54;100519.41;4964707;28;20042;-76
2022/06/19 06:46:13;;;;;;;11.02;2.75;;;23.80;99.90;;;24.77;58.83;100529.44;4949215;28;20058;-77
2022/06/19 06:48:39;;;;;;;14.45;2.90;;;24.60;99.90;;;25.27;57.23;100527.53;4977154;28;20022;-77
2022/06/19 06:51:13;;;;;;;14.55;3.00;;;24.90;99.90;;;25.21;57.31;100536.31;4982818;28;20034;-76
2022/06/19 06:53:39;;;;;;;14.23;3.20;;;25.10;99.90;;;25.08;58.17;100552.97;4971347;28;20214;-77
2022/06/19 06:56:05;;;;;;;13.60;2.80;;;25.00;99.90;;;24.72;57.79;100556.00;4962880;28;20022;-76
2022/06/19 06:58:32;;;;;;;10.70;2.63;;;25.10;99.90;;;25.31;56.81;100563.06;4962804;28;20121;-76
2022/06/19 07:01:05;;;;;;;10.77;2.75;;;25.20;99.90;;;25.07;56.94;100572.81;4963368;28;20113;-76
2022/06/19 07:03:30;;;;;;;12.27;2.78;;;25.20;99.80;;;24.91;56.02;100579.06;4961034;28;20030;-76
2022/06/19 07:05:56;;;;;;;14.85;3.03;;;25.30;99.90;;;25.25;56.28;100593.38;4990785;28;20022;-76
2022/06/19 07:08:22;;;;;;;;;;;25.40;99.90;;;25.21;55.22;100578.59;4980670;28;20069;-76
2022/06/19 07:10:48;;;;;;;11.55;2.70;;;25.30;99.20;;;24.56;56.76;100575.69;4954985;28;19925;-76
2022/06/19 07:13:14;;;;;;;16.88;3.25;;;25.40;99.90;;;25.41;55.20;100571.78;4981649;28;20061;-77
2022/06/19 07:15:40;;;;;;;11.43;2.95;;;25.50;98.50;;;24.99;53.86;100580.94;4961712;28;20099;-76
2022/06/19 07:18:06;;;;;;;12.68;2.58;;;25.60;98.80;;;25.58;53.58;100568.03;4956372;28;20483;-76
2022/06/19 07:20:34;;;;;;;11.15;2.47;;;25.70;97.80;;;25.55;53.12;100581.00;4945239;28;20750;-77
2022/06/19 07:23:02;;;;;;;10.82;2.83;;;25.90;98.30;;;25.75;52.65;100589.56;4947433;28;20679;-77
2022/06/19 07:25:28;;;;;;;9.93;2.78;;;25.80;97.70;;;25.31;53.31;100552.28;4932756;28;20725;-76
2022/06/19 07:27:54;;;;;;;8.65;2.25;;;26.10;97.80;;;26.24;51.83;100577.72;4949809;28;20054;-76
2022/06/19 07:30:25;;;;;;;9.20;2.45;;;26.60;96.90;;;26.99;50.16;100617.56;4974179;28;20046;-76
2022/06/19 07:32:52;;;;;;;13.35;3.00;;;26.90;96.50;;;26.88;50.13;100599.09;4955484;28;20045;-77
2022/06/19 07:35:18;;;;;;;14.23;2.60;;;26.50;96.40;;;26.02;51.75;100569.41;4959620;28;20041;-76
2022/06/19 07:37:44;;;;;;;9.35;2.20;;;26.10;96.90;;;25.02;54.10;100571.66;4979293;28;20019;-76
2022/06/19 07:40:18;;;;;;;12.98;2.88;;;25.80;97.50;;;25.00;54.35;100616.78;4973589;28;20034;-78
2022/06/19 07:42:44;;;;;;;12.00;2.60;;;25.30;98.00;;;24.52;55.62;100633.53;4965676;28;20099;-76
2022/06/19 07:45:12;;;;;;;14.32;3.13;;;24.70;98.80;;;23.74;58.10;100618.38;4943266;28;20037;-76
2022/06/19 07:50:23;;;;;;;17.85;2.78;;;25.60;97.30;;;26.17;50.74;100637.78;4959930;28;20041;-76
2022/06/19 07:52:51;;;;;;;13.10;2.60;;;26.20;98.00;;;26.72;49.89;100627.09;4970000;28;20083;-76
2022/06/19 07:55:23;;;;;;;14.63;3.47;;;26.80;96.70;;;27.42;48.26;100628.72;4955961;28;20144;-77
2022/06/19 07:57:50;;;;;;;9.52;2.20;;;27.30;95.40;;;27.89;47.18;100638.38;4956942;28;21602;-76
2022/06/19 08:00:23;;;;;;;12.13;2.38;;;27.20;95.00;;;27.10;48.40;100627.94;4946075;28;20045;-77
2022/06/19 08:02:52;;;;;;;16.45;2.97;;;26.90;94.40;;;26.59;48.94;100612.31;4968124;28;20486;-76
2022/06/19 08:05:20;;;;;;;10.65;2.35;;;26.90;95.20;;;26.62;49.00;100611.09;4947200;28;20042;-76
2022/06/19 08:07:50;;;;;;;13.40;2.70;;;26.50;96.00;;;26.21;51.11;100599.69;4981670;28;21038;-77
2022/06/19 08:10:22;;;;;;;14.82;2.90;;;26.60;95.60;;;26.51;49.92;100598.00;4967342;28;20026;-77
2022/06/19 08:12:53;;;;;;;15.00;2.85;;;26.60;94.90;;;26.28;49.88;100598.78;4965466;28;20034;-77
2022/06/19 08:15:21;;;;;;;13.15;3.05;;;26.70;96.20;;;26.83;49.56;100585.31;4969122;28;20026;-77
2022/06/19 08:17:48;;;;;;;8.77;2.63;;;26.70;94.90;;;26.31;49.17;100581.41;4948275;28;20467;-77
2022/06/19 08:20:16;;;;;;;16.20;3.65;;;26.30;94.70;;;25.64;50.33;100579.13;4979870;28;20030;-76
2022/06/19 08:22:44;;;;;;;9.80;2.50;;;25.80;95.70;;;25.22;52.00;100575.69;4958876;28;20057;-76
2022/06/19 08:25:15;;;;;;;13.82;2.70;;;25.50;96.50;;;25.20;52.63;100583.09;4973465;28;20033;-77
2022/06/19 08:27:47;;;;;;;14.98;2.55;;;25.60;96.90;;;25.59;52.83;100601.22;4960375;28;20022;-76
2022/06/19 08:30:28;;;;;;;10.73;2.60;;;25.70;96.50;;;25.65;51.33;100621.28;4968767;28;20033;-77
2022/06/19 08:32:54;;;;;;;9.30;2.50;;;25.50;96.50;;;25.08;53.16;100612.22;4973340;28;20756;-78
2022/06/19 08:35:26;;;;;;;11.82;1.90;;;25.50;97.40;;;25.21;53.22;100600.16;4967047;28;20045;-77
2022/06/19 08:38:02;;;;;;;8.13;2.38;;;25.50;96.20;;;25.15;52.57;100564.72;4926241;28;21345;-77
2022/06/19 08:40:58;;;;;;;10.77;2.80;;;25.50;97.10;;;25.17;52.72;100554.63;4922843;28;20026;-77
2022/06/19 08:43:48;;;;;;;11.88;2.55;;;25.10;97.40;;;24.18;54.87;100560.94;4958406;28;20586;-77
2022/06/19 08:46:40;;;;;;;11.93;2.60;;;24.60;98.10;;;23.70;57.12;100546.28;4961870;28;20047;-77
2022/06/19 08:49:56;;;;;;;11.13;2.65;;;24.50;98.50;;;23.03;57.58;100524.59;4990011;28;20034;-78
2022/06/19 08:53:04;;;;;;;17.23;2.30;;;24.20;99.40;;;23.28;59.13;100525.56;4964111;28;20082;-77
2022/06/19 08:56:10;;;;;;;20.80;3.17;;;23.90;99.00;;;22.88;58.93;100524.28;4940658;28;20030;-77
2022/06/19 08:59:17;;;;;;;18.42;3.13;;;23.50;99.20;;;22.60;59.63;100510.97;4956232;28;20026;-77
2022/06/19 09:02:14;;;;;;;15.90;2.92;;;23.10;98.90;;;22.12;59.35;100491.56;4962943;28;20197;-78
2022/06/19 09:05:44;;;;;;;20.83;3.03;;;23.00;99.90;;;22.30;59.75;100501.50;4957903;28;20026;-76
2022/06/19 09:08:53;;;;;;;22.38;3.63;;;22.80;99.10;;;22.04;59.67;100493.31;4968438;28;20566;-76
2022/06/19 09:11:59;;;;;;;15.18;2.58;;;23.00;99.60;;;22.08;59.17;100516.16;4973471;28;20041;-78
2022/06/19 09:15:07;;;;;;;8.82;2.25;;;22.70;99.90;;;21.88;60.26;100492.16;4953553;28;20414;-77
2022/06/19 09:17:42;;;;;;;16.42;3.15;;;22.60;99.90;;;22.00;61.91;100499.97;4969067;28;20398;-77
2022/06/19 09:21:13;;;;;;;;;;;;;;;;;;;;;
2022/06/19 09:24:20;;;;;;;17.23;3.47;;;23.60;99.90;;;23.53;58.42;100497.84;4970300;28;20461;-76
2022/06/19 09:27:01;;;;;;;29.17;3.97;;;23.90;98.90;;;23.48;56.79;100507.41;4978853;28;20065;-76
2022/06/19 09:29:58;;;;;;;14.73;3.47;;;24.10;99.30;;;23.62;57.08;100514.00;4948916;28;20040;-77
2022/06/19 09:32:45;;;;;;;;;;;23.80;99.10;;;22.89;58.86;100507.16;4948335;28;20072;-77
2022/06/19 09:35:46;;;;;;;15.65;2.53;;;23.20;98.90;;;21.81;59.81;100509.81;4965654;28;20054;-77
2022/06/19 09:38:48;;;;;;;16.35;3.10;;;22.90;99.50;;;21.79;60.89;100487.69;4949743;28;20042;-78
2022/06/19 09:41:28;;;;;;;22.65;3.15;;;22.60;99.90;;;21.65;61.59;100488.19;4975626;28;20022;-78
2022/06/19 09:44:18;;;;;;;21.77;4.03;;;22.60;99.90;;;21.79;61.21;100479.66;4967170;28;20422;-77
2022/06/19 09:47:01;;;;;;;21.67;3.40;;;22.60;99.90;;;21.97;62.12;100482.38;4948602;28;20065;-77
2022/06/19 09:49:53;;;;;;;17.95;3.20;;;22.80;99.90;;;22.42;60.97;100507.44;4957714;28;20212;-78
2022/06/19 09:52:46;;;;;;;21.70;3.22;;;23.10;99.90;;;22.75;59.26;100513.13;4991767;28;20026;-77
2022/06/19 09:55:41;;;;;;;20.13;3.40;;;23.50;99.90;;;23.29;58.66;100524.59;4947097;28;20038;-77
2022/06/19 09:58:18;;;;;;;16.30;3.17;;;23.50;99.50;;;22.66;58.50;100531.84;4965571;28;20675;-77
2022/06/19 10:00:55;;;;;;;18.00;3.70;;;23.30;99.40;;;22.51;59.09;100526.16;4950833;28;20049;-77
2022/06/19 10:03:37;;;;;;;22.60;3.67;;;23.10;99.90;;;22.31;60.41;100512.06;4954933;28;20583;-77
2022/06/19 10:06:26;;;;;;;23.83;3.33;;;23.10;99.50;;;22.35;59.38;100501.03;4976165;28;20026;-78
2022/06/19 10:09:04;;;;;;;14.43;3.08;;;23.10;99.90;;;22.23;60.12;100511.97;4965717;28;25617;-78
2022/06/19 10:11:39;;;;;;;15.55;2.90;;;22.80;99.90;;;21.84;61.23;100497.97;4959440;28;20042;-79
2022/06/19 10:14:34;;;;;;;22.00;3.63;;;22.90;99.90;;;21.91;61.21;100510.59;4962502;23;20044;-76
2022/06/19 10:17:16;;;;;;;16.40;3.55;;;22.60;99.90;;;21.74;61.88;100530.16;4956847;28;20033;-77
2022/06/19 10:20:19;;;;;;;17.42;3.47;;;22.50;99.90;;;21.63;62.75;100525.00;4960022;28;20033;-76
2022/06/19 10:23:25;;;;;;;15.60;3.13;;;22.90;99.90;;;22.57;61.07;100526.53;5002983;28;20040;-76
2022/06/19 10:26:17;;;;;;;14.60;3.17;;;23.00;99.90;;;22.47;60.97;100526.63;4980872;28;20883;-77
2022/06/19 10:29:12;;;;;;;14.73;3.10;;;23.10;99.90;;;22.72;60.10;100535.72;4971525;28;20036;-77
2022/06/19 10:35:28;;;;;;;12.98;2.33;;;22.90;99.90;;;22.11;61.68;100548.00;4892027;23;20099;-78
2022/06/19 10:38:40;;;;;;;15.90;3.20;;;23.00;99.90;;;22.60;60.44;100547.72;4930996;28;20046;-77
2022/06/19 10:42:01;;;;;;;15.48;3.72;;;23.10;98.90;;;22.35;57.49;100565.41;4917651;28;20027;-77
2022/06/19 10:45:15;;;;;;;16.13;3.17;;;23.00;98.70;;;22.06;57.68;100555.69;4916703;28;20439;-77